createdAt,value
2023-03-17T00:00:54.972Z,2.1
2023-03-17T00:02:56.363Z,1.5
2023-03-17T00:04:57.712Z,1.4
2023-03-17T00:06:59.089Z,1
2023-03-17T00:09:00.486Z,2.3
2023-03-17T00:11:01.857Z,1.3
2023-03-17T00:13:03.230Z,1.2
2023-03-17T00:15:07.943Z,1.6
2023-03-17T00:17:09.346Z,1.8
2023-03-17T00:19:10.736Z,1.1
2023-03-17T00:20:13.086Z,1.1
2023-03-17T00:22:14.440Z,1.7
2023-03-17T00:30:23.332Z,2.1
2023-03-17T00:32:24.716Z,1.9
2023-03-17T00:34:26.129Z,1.3
2023-03-17T00:36:27.511Z,1.9
2023-03-17T00:38:28.871Z,2.8
2023-03-17T00:40:30.497Z,1.2
2023-03-17T00:42:34.924Z,1.7
2023-03-17T00:44:36.292Z,2.2
2023-03-17T00:46:37.762Z,1.9
2023-03-17T00:48:39.109Z,2
2023-03-17T00:50:40.533Z,2.3
2023-03-17T00:54:43.306Z,1.1
2023-03-17T00:56:47.959Z,2.6
2023-03-17T00:58:49.322Z,2
2023-03-17T01:00:50.799Z,2.3
2023-03-17T01:02:52.064Z,1.3
2023-03-17T01:05:05.569Z,1.7
2023-03-17T01:06:54.823Z,1.9
2023-03-17T01:08:56.169Z,1.4
2023-03-17T01:11:00.850Z,2
2023-03-17T01:13:02.236Z,1.4
2023-03-17T01:15:03.617Z,1.8
2023-03-17T01:16:06.043Z,1.2
2023-03-17T01:18:07.307Z,1.5
2023-03-17T01:20:08.682Z,2.3
2023-03-17T01:22:10.125Z,2.3
2023-03-17T01:24:14.697Z,2.4
2023-03-17T01:26:16.099Z,2
2023-03-17T01:28:17.471Z,1.6
2023-03-17T01:30:18.907Z,2.1
2023-03-17T01:32:20.268Z,1
2023-03-17T01:34:21.751Z,1.7
2023-03-17T01:36:23.030Z,1.7
2023-03-17T01:38:27.654Z,1.3
2023-03-17T01:40:29.438Z,0.9
2023-03-17T01:42:30.424Z,2.4
2023-03-17T01:44:31.792Z,1.7
2023-03-17T01:46:33.139Z,1.9
2023-03-17T01:48:34.512Z,1.1
2023-03-17T01:50:35.921Z,1
2023-03-17T01:54:42.037Z,2.3
2023-03-17T01:56:43.416Z,1.4
2023-03-17T01:58:44.774Z,1.8
2023-03-17T02:00:46.234Z,1.4
2023-03-17T02:02:47.484Z,1.6
2023-03-17T02:04:48.892Z,1.4
2023-03-17T02:06:58.309Z,2.4
2023-03-17T02:08:54.914Z,2.4
2023-03-17T02:10:56.298Z,1.8
2023-03-17T02:11:58.619Z,2
2023-03-17T02:13:59.978Z,1.2
2023-03-17T02:16:01.324Z,2
2023-03-17T02:18:02.703Z,0.8
2023-03-17T02:20:07.381Z,1.8
2023-03-17T02:22:08.760Z,0.8
2023-03-17T02:30:14.257Z,1.9
2023-03-17T02:32:15.632Z,1.3
2023-03-17T02:34:20.289Z,2.1
2023-03-17T02:36:21.679Z,0.7
2023-03-17T02:38:23.031Z,3.8
2023-03-17T02:40:24.421Z,1.1
2023-03-17T02:42:25.765Z,1.4
2023-03-17T02:44:27.207Z,1.5
2023-03-17T02:46:30.173Z,1.3
2023-03-17T02:48:34.712Z,1.5
2023-03-17T02:50:36.115Z,2
2023-03-17T02:52:37.327Z,1.5
2023-03-17T02:54:38.660Z,1
2023-03-17T02:56:40.061Z,1.4
2023-03-17T02:58:41.425Z,1.3
2023-03-17T03:00:42.815Z,1.8
2023-03-17T03:02:47.529Z,2.7
2023-03-17T03:04:48.781Z,2.2
2023-03-17T03:06:50.188Z,1.3
2023-03-17T03:09:19.025Z,1.4
2023-03-17T03:11:20.427Z,0.9
2023-03-17T03:13:21.796Z,1.3
2023-03-17T03:15:26.465Z,1.8
2023-03-17T03:17:27.826Z,2.5
2023-03-17T03:21:30.587Z,0.9
2023-03-17T03:27:34.716Z,1.6
2023-03-17T03:37:44.827Z,1.2
2023-03-17T03:39:46.189Z,2.4
2023-03-17T03:41:47.570Z,2.1
2023-03-17T03:43:52.294Z,2.3
2023-03-17T03:45:53.597Z,1.5
2023-03-17T03:47:56.438Z,1.2
2023-03-17T03:49:56.352Z,1.2
2023-03-17T03:51:57.739Z,1.8
2023-03-17T03:53:59.149Z,1.6
2023-03-17T03:56:00.497Z,1.3
2023-03-17T03:58:07.655Z,1.5
2023-03-17T04:00:06.536Z,0.8
2023-03-17T04:02:09.562Z,1.5
2023-03-17T04:09:14.363Z,1.7
2023-03-17T04:13:20.426Z,2
2023-03-17T04:19:24.547Z,1.8
2023-03-17T04:21:25.946Z,1.7
2023-03-17T04:23:27.387Z,2
2023-03-17T04:25:31.978Z,1.7
2023-03-17T04:29:34.735Z,2.4
2023-03-17T04:37:40.227Z,1.1
2023-03-17T04:39:44.912Z,1.2
2023-03-17T04:41:46.338Z,1.7
2023-03-17T04:45:49.095Z,1.4
2023-03-17T04:47:50.453Z,1.8
2023-03-17T04:49:51.833Z,1
2023-03-17T04:51:53.222Z,1.7
2023-03-17T04:53:57.887Z,2
2023-03-17T04:55:59.239Z,1.3
2023-03-17T04:58:00.638Z,1.4
2023-03-17T04:59:02.963Z,1.2
2023-03-17T05:01:04.418Z,1.6
2023-03-17T05:05:07.098Z,0.7
2023-03-17T05:07:11.757Z,1
2023-03-17T05:11:14.531Z,1.6
2023-03-17T05:13:15.919Z,1.3
2023-03-17T05:15:17.312Z,1.4
2023-03-17T05:17:18.703Z,0.7
2023-03-17T05:19:20.095Z,1.7
2023-03-17T05:21:24.746Z,2.4
2023-03-17T05:23:26.149Z,1.9
2023-03-17T05:25:27.528Z,0.6
2023-03-17T05:27:28.879Z,1.1
2023-03-17T05:29:30.295Z,2.1
2023-03-17T05:31:31.737Z,1.4
2023-03-17T05:33:33.046Z,1.4
2023-03-17T05:37:39.101Z,0.8
2023-03-17T05:41:41.893Z,1.7
2023-03-17T05:43:43.253Z,1
2023-03-17T05:45:44.667Z,1.5
2023-03-17T05:47:46.014Z,1.8
2023-03-17T05:49:50.695Z,1.4
2023-03-17T05:51:52.113Z,1.6
2023-03-17T05:53:53.469Z,1
2023-03-17T06:00:59.951Z,1.6
2023-03-17T06:05:06.012Z,1.7
2023-03-17T06:07:07.381Z,1.8
2023-03-17T06:09:08.765Z,1.6
2023-03-17T06:11:10.147Z,2.2
2023-03-17T06:13:11.533Z,2.1
2023-03-17T06:19:18.989Z,1.9
2023-03-17T06:21:20.376Z,1
2023-03-17T06:23:21.723Z,1.3
2023-03-17T06:25:23.121Z,1.9
2023-03-17T06:27:24.495Z,1.3
2023-03-17T06:29:25.846Z,1
2023-03-17T06:31:30.549Z,1.3
2023-03-17T06:33:31.893Z,1.5
2023-03-17T06:35:33.748Z,1.4
2023-03-17T06:37:34.694Z,2.2
2023-03-17T06:39:36.050Z,1.9
2023-03-17T06:41:37.436Z,1.6
2023-03-17T06:43:38.838Z,1.5
2023-03-17T06:45:43.511Z,1.7
2023-03-17T06:47:44.892Z,1.8
2023-03-17T06:49:46.269Z,1.1
2023-03-17T06:52:08.936Z,1.3
2023-03-17T06:54:10.300Z,1.2
2023-03-17T06:56:20.129Z,1.3
2023-03-17T06:58:16.345Z,1.4
2023-03-17T07:00:17.722Z,2.2
2023-03-17T07:02:19.132Z,1.5
2023-03-17T07:04:20.507Z,1.6
2023-03-17T07:06:21.856Z,1.9
2023-03-17T07:08:23.261Z,1.4
2023-03-17T07:10:24.651Z,1.9
2023-03-17T07:12:29.352Z,1.5
2023-03-17T07:14:30.726Z,1
2023-03-17T07:16:32.193Z,1.3
2023-03-17T07:18:33.474Z,1.3
2023-03-17T07:20:34.853Z,1.1
2023-03-17T07:22:36.220Z,1.1
2023-03-17T07:24:37.627Z,1
2023-03-17T07:26:42.337Z,1.1
2023-03-17T07:28:43.734Z,1.6
2023-03-17T07:30:45.105Z,1.8
2023-03-17T07:32:46.718Z,1.4
2023-03-17T07:34:47.873Z,1.3
2023-03-17T07:36:49.290Z,2.1
2023-03-17T07:38:50.659Z,1.4
2023-03-17T07:40:55.362Z,2.1
2023-03-17T07:42:56.808Z,1.7
2023-03-17T07:44:58.151Z,1.7
2023-03-17T07:46:00.499Z,2.2
2023-03-17T07:48:01.954Z,0.9
2023-03-17T07:50:03.271Z,1
2023-03-17T07:52:04.684Z,0.8
2023-03-17T07:54:09.347Z,1.6
2023-03-17T07:56:10.816Z,1.5
2023-03-17T08:02:14.991Z,1.3
2023-03-17T08:12:25.108Z,0.9
2023-03-17T08:16:27.987Z,1.3
2023-03-17T08:20:31.113Z,1.7
2023-03-17T08:24:36.891Z,1.5
2023-03-17T08:26:38.184Z,0.7
2023-03-17T08:28:39.605Z,1.4
2023-03-17T08:32:42.406Z,1.2
2023-03-17T08:34:43.793Z,3
2023-03-17T08:36:50.030Z,1.3
2023-03-17T08:38:51.410Z,1.1
2023-03-17T08:40:52.851Z,2.5
2023-03-17T08:41:55.175Z,1.4
2023-03-17T08:45:57.994Z,2
2023-03-17T08:47:59.365Z,1.3
2023-03-17T08:50:01.983Z,1.7
2023-03-17T08:52:03.299Z,3.3
2023-03-17T09:00:08.857Z,1.6
2023-03-17T09:02:10.376Z,0.9
2023-03-17T09:04:14.979Z,1.7
2023-03-17T09:06:16.368Z,1.5
2023-03-17T09:10:19.132Z,2
2023-03-17T09:12:20.517Z,1.6
2023-03-17T09:18:27.995Z,1.9
2023-03-17T09:24:32.182Z,1
2023-03-17T09:28:34.988Z,1.8
2023-03-17T09:32:41.107Z,2.4
2023-03-17T09:34:42.416Z,1.8
2023-03-17T09:36:43.857Z,1.8
2023-03-17T09:39:47.568Z,1.8
2023-03-17T09:41:48.916Z,3.7
2023-03-17T09:43:50.294Z,1.9
2023-03-17T09:45:55.025Z,2.1
2023-03-17T09:54:00.568Z,2.5
2023-03-17T10:00:08.052Z,1.5
2023-03-17T10:02:09.457Z,1.8
2023-03-17T10:04:10.773Z,1.2
2023-03-17T10:08:29.375Z,1.9
2023-03-17T10:10:15.009Z,2.2
2023-03-17T10:12:16.362Z,1.1
2023-03-17T10:14:21.055Z,1.7
2023-03-17T10:16:22.541Z,2.9
2023-03-17T10:18:23.830Z,2
2023-03-17T10:24:28.027Z,2.8
2023-03-17T10:26:29.393Z,1.7
2023-03-17T10:28:34.112Z,2.9
2023-03-17T10:30:35.486Z,1.8
2023-03-17T10:32:36.906Z,1.8
2023-03-17T10:37:01.189Z,2.7
2023-03-17T10:39:02.570Z,1.8
2023-03-17T10:43:08.636Z,1.7
2023-03-17T10:45:10.002Z,1.5
2023-03-17T10:47:12.179Z,2.6
2023-03-17T10:49:12.776Z,1.4
2023-03-17T10:53:15.516Z,3.1
2023-03-17T10:55:20.223Z,2
2023-03-17T10:57:21.630Z,1.7
2023-03-17T10:59:23.047Z,2.5
2023-03-17T11:03:25.737Z,3
2023-03-17T11:05:27.138Z,2.9
2023-03-17T11:07:28.499Z,2.3
2023-03-17T11:09:33.214Z,2.1
2023-03-17T11:11:34.605Z,2.8
2023-03-17T11:13:35.938Z,2.2
2023-03-17T11:15:37.381Z,3.1
2023-03-17T11:17:38.713Z,2.4
2023-03-17T11:19:40.130Z,2.4
2023-03-17T11:21:41.534Z,2.7
2023-03-17T11:27:48.803Z,1
2023-03-17T11:43:04.114Z,2.8
2023-03-17T11:45:05.479Z,2.5
2023-03-17T11:47:06.846Z,4
2023-03-17T11:49:08.246Z,3.5
2023-03-17T11:51:12.929Z,2.9
2023-03-17T11:57:17.033Z,0.8
2023-03-17T11:59:18.490Z,3.3
2023-03-17T12:01:19.749Z,2.6
2023-03-17T12:03:21.273Z,2.8
2023-03-17T12:05:25.849Z,3.2
2023-03-17T12:09:28.505Z,1.9
2023-03-17T12:11:29.875Z,3.3
2023-03-17T12:13:31.249Z,2.5
2023-03-17T12:15:32.654Z,3.8
2023-03-17T12:17:33.983Z,3
2023-03-17T12:19:39.367Z,2.7
2023-03-17T12:21:40.035Z,3
2023-03-17T12:24:43.804Z,4.1
2023-03-17T12:26:45.027Z,3.3
2023-03-17T12:28:46.386Z,3.2
2023-03-17T12:30:47.841Z,3.3
2023-03-17T12:32:52.543Z,3.2
2023-03-17T12:34:57.344Z,2.7
2023-03-17T12:36:55.103Z,3.4
2023-03-17T12:38:56.382Z,3.1
2023-03-17T12:42:59.000Z,2.8
2023-03-17T12:53:08.714Z,2.8
2023-03-17T12:55:10.524Z,2.6
2023-03-17T12:57:11.349Z,3.9
2023-03-17T12:59:12.596Z,3.1
2023-03-17T13:03:18.685Z,3.1
2023-03-17T13:05:20.276Z,3.4
2023-03-17T13:07:21.071Z,2.4
2023-03-17T13:09:22.320Z,2.5
2023-03-17T13:11:23.659Z,3.1
2023-03-17T13:13:24.901Z,3.1
2023-03-17T13:15:29.755Z,3.5
2023-03-17T13:17:30.741Z,3.1
2023-03-17T13:19:32.102Z,3.3
2023-03-17T13:20:34.451Z,2.9
2023-03-17T13:22:35.695Z,3.1
2023-03-17T13:24:36.961Z,3.7
2023-03-17T13:26:38.198Z,3.7
2023-03-17T13:28:42.674Z,3.4
2023-03-17T13:30:44.057Z,3
2023-03-17T13:32:45.437Z,2
2023-03-17T13:34:46.595Z,2.7
2023-03-17T13:36:47.903Z,3.1
2023-03-17T13:39:04.965Z,3.4
2023-03-17T13:40:50.576Z,3.4
2023-03-17T13:42:55.176Z,2.1
2023-03-17T13:44:56.520Z,2.2
2023-03-17T13:46:57.864Z,3
2023-03-17T13:48:59.151Z,3.7
2023-03-17T13:51:00.510Z,3.4
2023-03-17T13:53:01.842Z,2.7
2023-03-17T13:55:03.161Z,2.6
2023-03-17T13:57:07.618Z,3.2
2023-03-17T13:59:08.956Z,3.4
2023-03-17T14:01:10.305Z,3.7
2023-03-17T14:03:11.556Z,3
2023-03-17T14:05:12.920Z,2.7
2023-03-17T14:07:14.280Z,3.1
2023-03-17T14:09:15.650Z,2.1
2023-03-17T14:11:20.184Z,2.7
2023-03-17T14:13:21.464Z,4.2
2023-03-17T14:15:22.698Z,2.9
2023-03-17T14:17:51.243Z,3.8
2023-03-17T14:19:52.491Z,3.7
2023-03-17T14:21:53.777Z,3.5
2023-03-17T14:24:00.008Z,3.2
2023-03-17T14:26:01.223Z,4.3
2023-03-17T14:28:02.570Z,3
2023-03-17T14:38:12.273Z,3.5
2023-03-17T14:48:18.781Z,3.9
2023-03-17T14:54:25.906Z,4.4
2023-03-17T14:56:27.175Z,3.3
2023-03-17T14:58:28.537Z,4.3
2023-03-17T15:00:29.786Z,4.3
2023-03-17T15:02:31.098Z,5.4
2023-03-17T15:04:32.373Z,5.2
2023-03-17T15:06:37.583Z,3.5
2023-03-17T15:08:38.141Z,3.9
2023-03-17T15:10:39.478Z,3.8
2023-03-17T15:11:41.735Z,4
2023-03-17T15:13:43.008Z,4.1
2023-03-17T15:15:44.400Z,4.4
2023-03-17T15:17:45.746Z,4.2
2023-03-17T15:19:50.419Z,4.2
2023-03-17T15:21:51.798Z,4.7
2023-03-17T15:23:53.075Z,4.1
2023-03-17T15:31:58.559Z,3.7
2023-03-17T15:34:03.151Z,4.4
2023-03-17T15:36:04.598Z,4.3
2023-03-17T15:38:05.918Z,5
2023-03-17T15:40:07.313Z,3.7
2023-03-17T15:42:08.705Z,4.8
2023-03-17T15:44:10.091Z,3.9
2023-03-17T15:46:11.475Z,4.5
2023-03-17T15:48:16.149Z,4.6
2023-03-17T15:50:17.512Z,5
2023-03-17T15:52:18.943Z,5.6
2023-03-17T15:54:20.268Z,4.6
2023-03-17T15:56:21.663Z,6.3
2023-03-17T15:58:23.014Z,4.8
2023-03-17T16:00:24.440Z,6.1
2023-03-17T16:02:29.105Z,4.8
2023-03-17T16:04:30.517Z,6.3
2023-03-17T16:06:31.909Z,5.8
2023-03-17T16:09:35.614Z,4.7
2023-03-17T16:13:38.398Z,5.5
2023-03-17T16:23:48.593Z,5.3
2023-03-17T16:27:51.333Z,5.2
2023-03-17T16:29:56.014Z,5.4
2023-03-17T16:31:57.447Z,5.4
2023-03-17T16:33:58.833Z,6.5
2023-03-17T16:36:00.270Z,6.1
2023-03-17T16:38:01.630Z,6.8
2023-03-17T16:40:03.046Z,5.6
2023-03-17T16:42:04.405Z,5.1
2023-03-17T16:44:09.095Z,5.9
2023-03-17T16:46:10.517Z,6.4
2023-03-17T16:48:11.879Z,6.8
2023-03-17T16:50:13.255Z,6.2
2023-03-17T16:52:14.631Z,7.1
2023-03-17T16:54:16.035Z,5.3
2023-03-17T16:56:17.522Z,6.7
2023-03-17T16:58:22.136Z,6.9
2023-03-17T17:00:23.554Z,6.9
2023-03-17T17:02:24.994Z,7.1
2023-03-17T17:03:27.279Z,6.3
2023-03-17T17:05:28.700Z,7
2023-03-17T17:07:30.122Z,6.8
2023-03-17T17:09:31.509Z,5.2
2023-03-17T17:11:36.177Z,6.6
2023-03-17T17:13:37.601Z,5.8
2023-03-17T17:15:38.976Z,7.5
2023-03-17T17:21:43.161Z,5.2
2023-03-17T17:23:44.591Z,7.5
2023-03-17T17:25:49.285Z,6.3
2023-03-17T17:31:53.485Z,6.9
2023-03-17T17:37:57.630Z,7.4
2023-03-17T17:44:05.718Z,7.9
2023-03-17T17:46:07.076Z,5.5
2023-03-17T17:48:08.489Z,6.3
2023-03-17T17:50:09.876Z,7.9
2023-03-17T17:52:11.267Z,7.4
2023-03-17T17:54:15.940Z,6
2023-03-17T17:56:17.372Z,6.7
2023-03-17T17:58:18.774Z,6.1
2023-03-17T18:02:37.152Z,6.8
2023-03-17T18:04:38.627Z,4.7
2023-03-17T18:06:43.265Z,5.2
2023-03-17T18:08:44.656Z,5.3
2023-03-17T18:10:46.068Z,6.7
2023-03-17T18:12:47.467Z,6.5
2023-03-17T18:14:48.842Z,5.9
2023-03-17T18:16:50.253Z,4.2
2023-03-17T18:18:51.632Z,4
2023-03-17T18:20:56.333Z,4.1
2023-03-17T18:22:57.787Z,4.2
2023-03-17T18:24:59.133Z,4.4
2023-03-17T18:27:00.566Z,4.6
2023-03-17T18:29:01.950Z,3.8
2023-03-17T18:31:03.343Z,4.1
2023-03-17T18:33:04.835Z,5.1
2023-03-17T18:35:09.447Z,3.6
2023-03-17T18:37:10.816Z,4.1
2023-03-17T18:39:12.234Z,3.5
2023-03-17T18:41:13.636Z,6.8
2023-03-17T18:45:16.479Z,5.6
2023-03-17T18:47:17.898Z,6.7
2023-03-17T18:49:22.540Z,4.6
2023-03-17T18:51:23.948Z,4.1
2023-03-17T18:54:27.742Z,3.8
2023-03-17T18:56:29.125Z,5.8
2023-03-17T18:58:30.536Z,3.9
2023-03-17T19:00:32.198Z,4.1
2023-03-17T19:02:36.621Z,4.6
2023-03-17T19:04:38.056Z,6.3
2023-03-17T19:06:39.460Z,4.5
2023-03-17T19:08:40.839Z,6.2
2023-03-17T19:10:42.248Z,5
2023-03-17T19:12:43.638Z,4.9
2023-03-17T19:14:45.070Z,4
2023-03-17T19:16:49.791Z,4
2023-03-17T19:18:51.138Z,3.2
2023-03-17T19:20:52.540Z,3.3
2023-03-17T19:22:53.970Z,2.9
2023-03-17T19:28:58.142Z,3.9
2023-03-17T19:37:07.019Z,3.1
2023-03-17T19:39:08.450Z,3.1
2023-03-17T19:47:17.336Z,2.8
2023-03-17T19:50:21.072Z,4.2
2023-03-17T19:52:22.509Z,3
2023-03-17T19:54:23.891Z,2.5
2023-03-17T19:56:25.283Z,2.9
2023-03-17T19:58:29.962Z,2.8
2023-03-17T20:00:31.547Z,2.3
2023-03-17T20:02:32.773Z,1.9
2023-03-17T20:04:34.216Z,3.5
2023-03-17T20:06:35.578Z,1.8
2023-03-17T20:08:36.991Z,3.7
2023-03-17T20:10:38.404Z,1.8
2023-03-17T20:12:43.050Z,2.7
2023-03-17T20:16:47.397Z,2.4
2023-03-17T20:18:48.757Z,2.7
2023-03-17T20:20:50.131Z,2.9
2023-03-17T20:24:52.949Z,2.6
2023-03-17T20:26:57.656Z,2.2
2023-03-17T20:35:03.994Z,0.8
2023-03-17T20:37:04.644Z,1.9
2023-03-17T20:39:06.055Z,1.5
2023-03-17T20:41:10.761Z,1.7
2023-03-17T20:43:12.133Z,1.7
2023-03-17T20:45:13.545Z,1.5
2023-03-17T20:46:15.992Z,1.8
2023-03-17T20:48:17.280Z,1.8
2023-03-17T20:50:18.679Z,1.7
2023-03-17T20:52:20.108Z,1
2023-03-17T20:54:24.764Z,1.2
2023-03-17T20:56:26.211Z,0.7
2023-03-17T20:58:27.644Z,1.8
2023-03-17T21:00:28.982Z,1.4
2023-03-17T21:02:30.465Z,1.2
2023-03-17T21:04:31.752Z,1.7
2023-03-17T21:06:33.149Z,0.9
2023-03-17T21:08:37.883Z,1.5
2023-03-17T21:10:39.236Z,1.3
2023-03-17T21:12:40.680Z,1.8
2023-03-17T21:14:42.072Z,1.1
2023-03-17T21:16:43.471Z,1.5
2023-03-17T21:18:44.842Z,1.4
2023-03-17T21:20:46.277Z,1.5
2023-03-17T21:22:50.941Z,2.1
2023-03-17T21:24:52.350Z,0.9
2023-03-17T21:26:53.736Z,1.3
2023-03-17T21:34:59.298Z,1
2023-03-17T21:37:04.020Z,1.4
2023-03-17T21:39:05.411Z,1.2
2023-03-17T21:41:06.816Z,1.4
2023-03-17T21:47:32.690Z,1
2023-03-17T21:49:37.413Z,1.7
2023-03-17T22:01:45.829Z,1.2
2023-03-17T22:05:51.904Z,1.2
2023-03-17T22:09:54.707Z,1.4
2023-03-17T22:11:56.099Z,1.6
2023-03-17T22:13:57.511Z,1.3
2023-03-17T22:15:58.879Z,1.2
2023-03-17T22:18:03.577Z,1.6
2023-03-17T22:20:04.970Z,1.9
2023-03-17T22:22:06.411Z,1.8
2023-03-17T22:24:07.771Z,2.1
2023-03-17T22:26:09.198Z,1.7
2023-03-17T22:28:10.594Z,2.3
2023-03-17T22:30:11.996Z,2.3
2023-03-17T22:32:16.714Z,1.2
2023-03-17T22:34:18.092Z,1.9
2023-03-17T22:36:19.491Z,1.9
2023-03-17T22:37:21.820Z,1.4
2023-03-17T22:39:23.269Z,1.1
2023-03-17T22:41:24.638Z,1.4
2023-03-17T22:45:30.774Z,1.8
2023-03-17T22:47:32.166Z,1.3
2023-03-17T22:49:33.580Z,1.5
2023-03-17T22:55:37.762Z,1.5
2023-03-17T23:05:48.031Z,1.9
2023-03-17T23:07:51.522Z,1.5
2023-03-17T23:09:50.836Z,2.1
2023-03-17T23:11:52.213Z,2.7
2023-03-17T23:13:56.953Z,0.9
2023-03-17T23:15:58.350Z,1.3
2023-03-17T23:17:59.756Z,1.4
2023-03-17T23:20:01.141Z,1.5
2023-03-17T23:22:02.529Z,1.9
2023-03-17T23:24:03.924Z,1.9
2023-03-17T23:26:05.330Z,1.6
2023-03-17T23:28:10.055Z,3
2023-03-17T23:30:11.945Z,1.8
2023-03-17T23:32:12.840Z,1.8
2023-03-17T23:35:16.603Z,1.6
2023-03-17T23:37:18.011Z,1.8
2023-03-17T23:39:19.385Z,2
2023-03-17T23:45:26.881Z,2
2023-03-17T23:47:28.276Z,1.9
2023-03-17T23:49:29.708Z,2.3
2023-03-17T23:53:32.484Z,2.2
2023-03-17T23:55:37.219Z,2.4
2023-03-17T23:57:38.624Z,2.2
2023-03-17T23:59:39.965Z,2
